Aérodrome :
LOGIN :

S'inscrire | Disclaimer

   EN    FR    IT 

 










Légende :    VFR   VFR Marginal   IFR   IFR Intensif   IFR Très Intensif
Visi : 
Plafond : 
>= 8 km
>= 3000ft
5 à 8 km
1000 à 3000 ft
1500m à 5 km
500 à 1000 ft
800 à 1500m
200 à 500 ft
< 800m
< 200 ft
Symboles :   Orages  Brouillard  Fortes neiges  Fortes précipitations  Vent > 20 kt
SIGMETs :   Divers  Orages  Givrage  Turbulence  Onde Orograph.  Cendres Volcan.






- Altitude de l'aérodrome : 1267 ft
- Code IATA : CUF


LIMZ - Cuneo Levaldigi

DERNIER METAR :
  • 150050Z AUTO 23003KT 200V260 9999 SCT054/// 20/19 Q1014

METARs EXPIRÉS :
  • 150020Z AUTO 22002KT 9999 NCD 20/19 Q1013
  • 142350Z AUTO 23003KT 9999 FEW061/// 20/19 Q1013
  • 142320Z AUTO 26004KT 9999 SCT053/// BKN063/// 21/20 Q1014
  • 142250Z AUTO 23003KT 200V270 9999 SCT061/// 21/20 Q1014
  • 142220Z AUTO VRB02KT 9999 BKN062/// 21/20 Q1014
  • 142150Z AUTO VRB02KT 9999 BKN062/// 21/20 Q1013

TAF TAF LIMZ
Valide du 15 à 00h jusqu'au 16 à 00h UTC


142300Z 1500/1524 VRB05KT 9999 SCT070
TEMPO 1510/1514 4000 TSRA



MET'MAP, la Météo Aéronautique d'un coup d'oeil ! - Copyright ORBIFLY Décembre 2007 - Disclaimer

ORBIFLY MET'MAP TEAM :

Programmation & Développement : Alexandra Zaïnal
Sur une idée originale de : Baudouin d'Aumeries
Assistance à la programmation : Marc-Olivier Méhu
Soutien technique & logistique : Manuel Goepfert

Contact : metmap@orbifly.com




SOURCES & CREDITS :

   NOAA